sensor_id;sensor_type;location;lat;lon;timestamp;temperature;humidity
20459;DHT22;10388;52.314;7.938;2022-09-13T03:31:34;15.60;99.90
20459;DHT22;10388;52.314;7.938;2022-09-13T03:34:10;15.60;99.90
20459;DHT22;10388;52.314;7.938;2022-09-13T03:36:55;15.60;99.90
20459;DHT22;10388;52.314;7.938;2022-09-13T03:42:01;15.60;99.90
20459;DHT22;10388;52.314;7.938;2022-09-13T03:44:38;15.60;99.90
20459;DHT22;10388;52.314;7.938;2022-09-13T03:47:10;15.60;99.90
20459;DHT22;10388;52.314;7.938;2022-09-13T03:49:42;15.60;99.90
20459;DHT22;10388;52.314;7.938;2022-09-13T03:52:13;15.50;99.90
20459;DHT22;10388;52.314;7.938;2022-09-13T03:54:44;15.50;99.90
20459;DHT22;10388;52.314;7.938;2022-09-13T03:57:17;15.50;99.90
20459;DHT22;10388;52.314;7.938;2022-09-13T03:59:51;15.50;99.90
20459;DHT22;10388;52.314;7.938;2022-09-13T04:02:24;15.50;99.90
20459;DHT22;10388;52.314;7.938;2022-09-13T04:04:55;15.50;99.90
20459;DHT22;10388;52.314;7.938;2022-09-13T04:07:25;15.50;99.90
20459;DHT22;10388;52.314;7.938;2022-09-13T04:09:56;15.50;99.90
20459;DHT22;10388;52.314;7.938;2022-09-13T04:12:26;15.60;99.90
20459;DHT22;10388;52.314;7.938;2022-09-13T04:15:01;15.60;99.90
20459;DHT22;10388;52.314;7.938;2022-09-13T04:17:31;15.60;99.90
20459;DHT22;10388;52.314;7.938;2022-09-13T04:20:02;15.60;99.90
20459;DHT22;10388;52.314;7.938;2022-09-13T04:22:33;15.60;99.90
20459;DHT22;10388;52.314;7.938;2022-09-13T04:25:05;15.60;99.90
20459;DHT22;10388;52.314;7.938;2022-09-13T04:27:36;15.60;99.90
20459;DHT22;10388;52.314;7.938;2022-09-13T04:30:06;15.60;99.90
20459;DHT22;10388;52.314;7.938;2022-09-13T04:32:37;15.60;99.90
20459;DHT22;10388;52.314;7.938;2022-09-13T04:35:08;15.60;99.90
20459;DHT22;10388;52.314;7.938;2022-09-13T04:37:38;15.70;99.90
20459;DHT22;10388;52.314;7.938;2022-09-13T04:40:09;15.70;99.90
20459;DHT22;10388;52.314;7.938;2022-09-13T04:42:40;15.60;99.90
20459;DHT22;10388;52.314;7.938;2022-09-13T04:45:13;15.60;99.90
20459;DHT22;10388;52.314;7.938;2022-09-13T04:47:43;15.60;99.90
20459;DHT22;10388;52.314;7.938;2022-09-13T04:50:14;15.60;99.90
20459;DHT22;10388;52.314;7.938;2022-09-13T04:52:45;15.60;99.90
20459;DHT22;10388;52.314;7.938;2022-09-13T04:55:16;15.70;99.90
20459;DHT22;10388;52.314;7.938;2022-09-13T04:57:46;15.60;99.90
20459;DHT22;10388;52.314;7.938;2022-09-13T05:00:17;15.60;99.90
20459;DHT22;10388;52.314;7.938;2022-09-13T05:02:47;15.70;99.90
20459;DHT22;10388;52.314;7.938;2022-09-13T05:05:18;15.70;99.90
20459;DHT22;10388;52.314;7.938;2022-09-13T05:07:49;15.70;99.90
20459;DHT22;10388;52.314;7.938;2022-09-13T05:10:20;15.70;99.90
20459;DHT22;10388;52.314;7.938;2022-09-13T05:12:51;15.70;99.90
20459;DHT22;10388;52.314;7.938;2022-09-13T05:15:22;15.70;99.90
20459;DHT22;10388;52.314;7.938;2022-09-13T05:17:52;15.70;99.90
20459;DHT22;10388;52.314;7.938;2022-09-13T05:20:23;15.70;99.90
20459;DHT22;10388;52.314;7.938;2022-09-13T05:22:55;15.70;99.90
20459;DHT22;10388;52.314;7.938;2022-09-13T05:25:25;15.70;99.90
20459;DHT22;10388;52.314;7.938;2022-09-13T05:27:56;15.70;99.90
20459;DHT22;10388;52.314;7.938;2022-09-13T05:30:26;15.80;99.90
20459;DHT22;10388;52.314;7.938;2022-09-13T05:32:56;15.80;99.90
20459;DHT22;10388;52.314;7.938;2022-09-13T05:35:27;15.80;99.90
20459;DHT22;10388;52.314;7.938;2022-09-13T05:37:58;15.80;99.90
20459;DHT22;10388;52.314;7.938;2022-09-13T05:40:28;15.80;99.90
20459;DHT22;10388;52.314;7.938;2022-09-13T05:42:59;15.80;99.90
20459;DHT22;10388;52.314;7.938;2022-09-13T05:45:29;15.90;99.90
20459;DHT22;10388;52.314;7.938;2022-09-13T05:48:00;15.90;99.90
20459;DHT22;10388;52.314;7.938;2022-09-13T05:50:31;15.90;99.90
20459;DHT22;10388;52.314;7.938;2022-09-13T05:53:01;15.90;99.90
20459;DHT22;10388;52.314;7.938;2022-09-13T05:55:32;15.90;99.90
20459;DHT22;10388;52.314;7.938;2022-09-13T05:58:03;15.90;99.90
20459;DHT22;10388;52.314;7.938;2022-09-13T06:00:34;15.90;99.90
20459;DHT22;10388;52.314;7.938;2022-09-13T06:03:04;16.00;99.90
20459;DHT22;10388;52.314;7.938;2022-09-13T06:05:35;16.00;99.90
20459;DHT22;10388;52.314;7.938;2022-09-13T06:08:05;16.00;99.90
20459;DHT22;10388;52.314;7.938;2022-09-13T06:10:37;16.10;99.90
20459;DHT22;10388;52.314;7.938;2022-09-13T06:13:07;16.10;99.90
20459;DHT22;10388;52.314;7.938;2022-09-13T06:15:38;16.10;99.90
20459;DHT22;10388;52.314;7.938;2022-09-13T06:18:08;16.10;99.90
20459;DHT22;10388;52.314;7.938;2022-09-13T06:20:39;16.10;99.90
20459;DHT22;10388;52.314;7.938;2022-09-13T06:23:10;16.10;99.90
20459;DHT22;10388;52.314;7.938;2022-09-13T06:25:40;16.10;99.90
20459;DHT22;10388;52.314;7.938;2022-09-13T06:28:11;16.20;99.90
20459;DHT22;10388;52.314;7.938;2022-09-13T06:30:41;16.20;99.90
20459;DHT22;10388;52.314;7.938;2022-09-13T06:33:12;16.20;99.90
20459;DHT22;10388;52.314;7.938;2022-09-13T06:35:43;16.30;99.90
20459;DHT22;10388;52.314;7.938;2022-09-13T06:38:13;16.30;99.90
20459;DHT22;10388;52.314;7.938;2022-09-13T06:40:44;16.40;99.90
20459;DHT22;10388;52.314;7.938;2022-09-13T06:43:14;16.40;99.90
20459;DHT22;10388;52.314;7.938;2022-09-13T06:45:45;16.40;99.90
20459;DHT22;10388;52.314;7.938;2022-09-13T06:48:16;16.40;99.90
20459;DHT22;10388;52.314;7.938;2022-09-13T06:50:47;16.50;99.90
20459;DHT22;10388;52.314;7.938;2022-09-13T06:53:18;16.50;99.90
20459;DHT22;10388;52.314;7.938;2022-09-13T06:55:48;16.50;99.90
20459;DHT22;10388;52.314;7.938;2022-09-13T06:58:19;16.50;99.90
20459;DHT22;10388;52.314;7.938;2022-09-13T07:00:49;16.50;99.90
20459;DHT22;10388;52.314;7.938;2022-09-13T07:03:20;16.60;99.90
20459;DHT22;10388;52.314;7.938;2022-09-13T07:05:50;16.60;99.90
20459;DHT22;10388;52.314;7.938;2022-09-13T07:08:21;16.60;99.90
20459;DHT22;10388;52.314;7.938;2022-09-13T07:10:56;16.60;99.90
20459;DHT22;10388;52.314;7.938;2022-09-13T07:13:27;16.70;99.90
20459;DHT22;10388;52.314;7.938;2022-09-13T07:16:04;16.70;99.90
20459;DHT22;10388;52.314;7.938;2022-09-13T07:18:36;16.70;99.90
20459;DHT22;10388;52.314;7.938;2022-09-13T07:21:08;16.70;99.90
20459;DHT22;10388;52.314;7.938;2022-09-13T07:23:39;16.80;99.90
20459;DHT22;10388;52.314;7.938;2022-09-13T07:26:10;16.80;99.90
20459;DHT22;10388;52.314;7.938;2022-09-13T07:28:42;16.80;99.90
20459;DHT22;10388;52.314;7.938;2022-09-13T07:31:25;16.90;99.90
20459;DHT22;10388;52.314;7.938;2022-09-13T07:34:07;16.90;99.90
20459;DHT22;10388;52.314;7.938;2022-09-13T07:36:37;17.00;99.90
20459;DHT22;10388;52.314;7.938;2022-09-13T07:39:08;17.00;99.90
20459;DHT22;10388;52.314;7.938;2022-09-13T07:41:39;17.00;99.90
20459;DHT22;10388;52.314;7.938;2022-09-13T07:44:10;17.00;99.90
20459;DHT22;10388;52.314;7.938;2022-09-13T07:46:41;17.00;99.90
20459;DHT22;10388;52.314;7.938;2022-09-13T07:49:16;17.10;99.90
20459;DHT22;10388;52.314;7.938;2022-09-13T07:51:47;17.10;99.90
20459;DHT22;10388;52.314;7.938;2022-09-13T07:54:20;17.20;99.90
20459;DHT22;10388;52.314;7.938;2022-09-13T07:56:51;17.20;99.90
20459;DHT22;10388;52.314;7.938;2022-09-13T07:59:21;17.20;99.90
20459;DHT22;10388;52.314;7.938;2022-09-13T08:01:52;17.30;99.90
20459;DHT22;10388;52.314;7.938;2022-09-13T08:04:25;17.40;99.90
20459;DHT22;10388;52.314;7.938;2022-09-13T08:06:56;17.40;99.90
20459;DHT22;10388;52.314;7.938;2022-09-13T08:09:26;17.50;99.90
20459;DHT22;10388;52.314;7.938;2022-09-13T08:11:57;17.60;99.90
20459;DHT22;10388;52.314;7.938;2022-09-13T08:14:27;17.60;99.90
20459;DHT22;10388;52.314;7.938;2022-09-13T08:16:58;17.60;99.90
20459;DHT22;10388;52.314;7.938;2022-09-13T08:19:28;17.70;99.90
20459;DHT22;10388;52.314;7.938;2022-09-13T08:21:59;17.70;99.90
20459;DHT22;10388;52.314;7.938;2022-09-13T08:24:30;17.70;99.90
20459;DHT22;10388;52.314;7.938;2022-09-13T08:27:00;17.80;99.90
20459;DHT22;10388;52.314;7.938;2022-09-13T08:29:31;17.90;99.90
20459;DHT22;10388;52.314;7.938;2022-09-13T08:32:01;18.00;99.90
20459;DHT22;10388;52.314;7.938;2022-09-13T08:34:32;18.10;99.90
20459;DHT22;10388;52.314;7.938;2022-09-13T08:37:02;18.20;99.90
20459;DHT22;10388;52.314;7.938;2022-09-13T08:39:33;18.30;99.90
20459;DHT22;10388;52.314;7.938;2022-09-13T08:42:17;18.30;99.90
20459;DHT22;10388;52.314;7.938;2022-09-13T08:44:53;18.30;99.90
20459;DHT22;10388;52.314;7.938;2022-09-13T08:47:39;18.30;99.90
20459;DHT22;10388;52.314;7.938;2022-09-13T08:50:20;18.40;99.90
20459;DHT22;10388;52.314;7.938;2022-09-13T08:58:37;18.40;99.90
20459;DHT22;10388;52.314;7.938;2022-09-13T09:01:15;18.40;99.90
20459;DHT22;10388;52.314;7.938;2022-09-13T09:06:28;18.30;99.90
20459;DHT22;10388;52.314;7.938;2022-09-13T09:09:07;18.30;99.90
20459;DHT22;10388;52.314;7.938;2022-09-13T09:15:00;18.30;99.90
20459;DHT22;10388;52.314;7.938;2022-09-13T09:20:36;18.30;99.90
20459;DHT22;10388;52.314;7.938;2022-09-13T09:23:15;18.30;99.90
20459;DHT22;10388;52.314;7.938;2022-09-13T09:25:50;18.30;99.90
20459;DHT22;10388;52.314;7.938;2022-09-13T09:28:21;18.30;99.90
20459;DHT22;10388;52.314;7.938;2022-09-13T09:31:03;18.40;99.90
20459;DHT22;10388;52.314;7.938;2022-09-13T09:37:06;18.60;99.90
20459;DHT22;10388;52.314;7.938;2022-09-13T09:39:37;18.70;99.90
20459;DHT22;10388;52.314;7.938;2022-09-13T09:42:21;18.80;99.90
20459;DHT22;10388;52.314;7.938;2022-09-13T09:44:56;18.80;99.90
20459;DHT22;10388;52.314;7.938;2022-09-13T09:47:31;18.90;99.90
20459;DHT22;10388;52.314;7.938;2022-09-13T09:50:18;18.90;99.90
20459;DHT22;10388;52.314;7.938;2022-09-13T09:55:45;18.90;99.90
20459;DHT22;10388;52.314;7.938;2022-09-13T09:58:17;18.90;99.90
20459;DHT22;10388;52.314;7.938;2022-09-13T10:01:04;19.00;99.90
20459;DHT22;10388;52.314;7.938;2022-09-13T10:03:37;19.00;99.90
20459;DHT22;10388;52.314;7.938;2022-09-13T10:06:14;19.00;99.90
20459;DHT22;10388;52.314;7.938;2022-09-13T10:11:42;19.10;99.90
20459;DHT22;10388;52.314;7.938;2022-09-13T10:14:45;19.20;99.90
20459;DHT22;10388;52.314;7.938;2022-09-13T10:17:26;19.20;99.90
20459;DHT22;10388;52.314;7.938;2022-09-13T10:20:22;19.40;99.90
20459;DHT22;10388;52.314;7.938;2022-09-13T10:28:27;19.80;99.90
20459;DHT22;10388;52.314;7.938;2022-09-13T10:31:07;19.90;99.90
20459;DHT22;10388;52.314;7.938;2022-09-13T10:33:42;19.90;99.90
20459;DHT22;10388;52.314;7.938;2022-09-13T10:36:16;19.80;99.90
20459;DHT22;10388;52.314;7.938;2022-09-13T10:38:58;19.80;99.90
20459;DHT22;10388;52.314;7.938;2022-09-13T10:41:32;19.80;99.90
20459;DHT22;10388;52.314;7.938;2022-09-13T10:44:18;19.80;99.90
20459;DHT22;10388;52.314;7.938;2022-09-13T10:46:51;19.70;99.90
20459;DHT22;10388;52.314;7.938;2022-09-13T10:52:35;19.90;99.90
20459;DHT22;10388;52.314;7.938;2022-09-13T11:12:47;19.80;99.90
20459;DHT22;10388;52.314;7.938;2022-09-13T11:15:25;19.70;99.90
20459;DHT22;10388;52.314;7.938;2022-09-13T11:18:23;19.50;99.90
20459;DHT22;10388;52.314;7.938;2022-09-13T11:23:52;19.50;99.90
20459;DHT22;10388;52.314;7.938;2022-09-13T11:26:35;19.50;99.90
20459;DHT22;10388;52.314;7.938;2022-09-13T11:32:22;19.70;99.90
20459;DHT22;10388;52.314;7.938;2022-09-13T11:40:59;19.60;99.90
20459;DHT22;10388;52.314;7.938;2022-09-13T11:49:14;19.80;99.90
20459;DHT22;10388;52.314;7.938;2022-09-13T11:51:44;19.90;99.90
20459;DHT22;10388;52.314;7.938;2022-09-13T11:55:02;20.00;99.90
20459;DHT22;10388;52.314;7.938;2022-09-13T11:57:39;20.00;99.90
20459;DHT22;10388;52.314;7.938;2022-09-13T12:00:25;20.00;99.90
20459;DHT22;10388;52.314;7.938;2022-09-13T12:02:58;20.00;99.90
20459;DHT22;10388;52.314;7.938;2022-09-13T12:05:35;20.00;99.90
20459;DHT22;10388;52.314;7.938;2022-09-13T12:08:12;20.10;99.90
20459;DHT22;10388;52.314;7.938;2022-09-13T12:11:08;20.20;99.90
20459;DHT22;10388;52.314;7.938;2022-09-13T12:13:50;20.30;99.90
20459;DHT22;10388;52.314;7.938;2022-09-13T12:16:27;20.50;99.90
20459;DHT22;10388;52.314;7.938;2022-09-13T12:19:06;20.60;99.90
20459;DHT22;10388;52.314;7.938;2022-09-13T12:21:42;20.70;99.90
20459;DHT22;10388;52.314;7.938;2022-09-13T12:30:05;20.90;99.90
20459;DHT22;10388;52.314;7.938;2022-09-13T12:32:37;21.00;99.90
20459;DHT22;10388;52.314;7.938;2022-09-13T12:35:27;20.80;99.90
20459;DHT22;10388;52.314;7.938;2022-09-13T12:44:13;20.80;99.90
20459;DHT22;10388;52.314;7.938;2022-09-13T12:47:15;21.00;99.90
20459;DHT22;10388;52.314;7.938;2022-09-13T12:50:10;21.30;99.90
20459;DHT22;10388;52.314;7.938;2022-09-13T13:01:58;21.40;99.90
20459;DHT22;10388;52.314;7.938;2022-09-13T13:04:34;21.40;99.90
20459;DHT22;10388;52.314;7.938;2022-09-13T13:07:15;21.50;99.90
20459;DHT22;10388;52.314;7.938;2022-09-13T13:09:53;21.60;99.90
20459;DHT22;10388;52.314;7.938;2022-09-13T13:12:29;21.60;99.90
20459;DHT22;10388;52.314;7.938;2022-09-13T13:17:52;21.70;99.90
20459;DHT22;10388;52.314;7.938;2022-09-13T13:28:51;21.90;99.90
20459;DHT22;10388;52.314;7.938;2022-09-13T13:49:51;21.90;99.90
20459;DHT22;10388;52.314;7.938;2022-09-13T13:55:01;22.00;99.90
20459;DHT22;10388;52.314;7.938;2022-09-13T13:57:48;22.10;99.90
20459;DHT22;10388;52.314;7.938;2022-09-13T14:00:25;22.10;99.90
20459;DHT22;10388;52.314;7.938;2022-09-13T14:03:09;22.00;99.90
20459;DHT22;10388;52.314;7.938;2022-09-13T14:05:56;22.00;99.90
20459;DHT22;10388;52.314;7.938;2022-09-13T14:08:37;21.90;99.90
20459;DHT22;10388;52.314;7.938;2022-09-13T14:11:46;21.80;99.90
20459;DHT22;10388;52.314;7.938;2022-09-13T14:14:42;21.60;99.90
20459;DHT22;10388;52.314;7.938;2022-09-13T14:20:20;21.40;99.90
20459;DHT22;10388;52.314;7.938;2022-09-13T14:23:14;21.30;99.90
20459;DHT22;10388;52.314;7.938;2022-09-13T14:25:53;21.20;99.90
20459;DHT22;10388;52.314;7.938;2022-09-13T14:28:25;21.20;99.90
20459;DHT22;10388;52.314;7.938;2022-09-13T14:30:57;21.30;99.90
20459;DHT22;10388;52.314;7.938;2022-09-13T14:33:31;21.30;99.90
20459;DHT22;10388;52.314;7.938;2022-09-13T14:36:07;21.20;99.90
20459;DHT22;10388;52.314;7.938;2022-09-13T14:38:53;21.20;99.90
20459;DHT22;10388;52.314;7.938;2022-09-13T14:41:32;21.30;99.90
20459;DHT22;10388;52.314;7.938;2022-09-13T14:44:23;21.30;99.90
20459;DHT22;10388;52.314;7.938;2022-09-13T14:47:11;21.20;99.90
20459;DHT22;10388;52.314;7.938;2022-09-13T14:49:49;21.20;99.90
20459;DHT22;10388;52.314;7.938;2022-09-13T14:52:28;21.10;99.90
20459;DHT22;10388;52.314;7.938;2022-09-13T14:55:02;21.10;99.90
20459;DHT22;10388;52.314;7.938;2022-09-13T14:57:42;21.20;99.90
20459;DHT22;10388;52.314;7.938;2022-09-13T15:00:18;21.30;99.90
20459;DHT22;10388;52.314;7.938;2022-09-13T15:02:51;21.40;99.90
20459;DHT22;10388;52.314;7.938;2022-09-13T15:05:24;21.50;99.90
20459;DHT22;10388;52.314;7.938;2022-09-13T15:07:56;21.50;99.90
20459;DHT22;10388;52.314;7.938;2022-09-13T15:10:45;21.50;99.90
20459;DHT22;10388;52.314;7.938;2022-09-13T15:13:15;21.50;99.90
20459;DHT22;10388;52.314;7.938;2022-09-13T15:15:46;21.50;99.90
20459;DHT22;10388;52.314;7.938;2022-09-13T15:20:54;21.40;99.90
20459;DHT22;10388;52.314;7.938;2022-09-13T15:26:04;21.30;99.90
20459;DHT22;10388;52.314;7.938;2022-09-13T15:31:26;21.20;99.90
20459;DHT22;10388;52.314;7.938;2022-09-13T15:37:07;21.10;99.90
20459;DHT22;10388;52.314;7.938;2022-09-13T15:39:50;21.10;99.90
20459;DHT22;10388;52.314;7.938;2022-09-13T15:42:30;21.10;99.90
20459;DHT22;10388;52.314;7.938;2022-09-13T15:45:01;21.10;99.90
20459;DHT22;10388;52.314;7.938;2022-09-13T15:47:31;21.10;99.90
20459;DHT22;10388;52.314;7.938;2022-09-13T15:50:02;21.00;99.90
20459;DHT22;10388;52.314;7.938;2022-09-13T15:52:33;20.90;99.90
20459;DHT22;10388;52.314;7.938;2022-09-13T15:55:04;20.90;99.90
20459;DHT22;10388;52.314;7.938;2022-09-13T15:57:35;20.80;99.90
20459;DHT22;10388;52.314;7.938;2022-09-13T16:00:08;20.80;99.90
20459;DHT22;10388;52.314;7.938;2022-09-13T16:02:41;20.70;99.90
20459;DHT22;10388;52.314;7.938;2022-09-13T16:05:11;20.60;99.90
20459;DHT22;10388;52.314;7.938;2022-09-13T16:07:43;20.50;99.90
20459;DHT22;10388;52.314;7.938;2022-09-13T16:10:19;20.40;99.90
20459;DHT22;10388;52.314;7.938;2022-09-13T16:12:50;20.30;99.90
20459;DHT22;10388;52.314;7.938;2022-09-13T16:15:21;20.30;99.90
20459;DHT22;10388;52.314;7.938;2022-09-13T16:17:51;20.30;99.90
20459;DHT22;10388;52.314;7.938;2022-09-13T16:20:22;20.30;99.90
20459;DHT22;10388;52.314;7.938;2022-09-13T16:22:53;20.30;99.90
20459;DHT22;10388;52.314;7.938;2022-09-13T16:25:24;20.20;99.90
20459;DHT22;10388;52.314;7.938;2022-09-13T16:27:54;20.10;99.90
20459;DHT22;10388;52.314;7.938;2022-09-13T16:30:25;20.10;99.90
20459;DHT22;10388;52.314;7.938;2022-09-13T16:32:59;20.10;99.90
20459;DHT22;10388;52.314;7.938;2022-09-13T16:35:30;20.10;99.90
20459;DHT22;10388;52.314;7.938;2022-09-13T16:38:02;20.10;99.90
20459;DHT22;10388;52.314;7.938;2022-09-13T16:40:32;20.00;99.90
20459;DHT22;10388;52.314;7.938;2022-09-13T16:43:03;20.00;99.90
20459;DHT22;10388;52.314;7.938;2022-09-13T16:45:36;19.90;99.90
20459;DHT22;10388;52.314;7.938;2022-09-13T16:48:08;20.00;99.90
20459;DHT22;10388;52.314;7.938;2022-09-13T16:50:39;19.80;99.90
20459;DHT22;10388;52.314;7.938;2022-09-13T16:53:10;19.80;99.90
20459;DHT22;10388;52.314;7.938;2022-09-13T16:55:41;19.80;99.90
20459;DHT22;10388;52.314;7.938;2022-09-13T16:58:12;19.70;99.90
20459;DHT22;10388;52.314;7.938;2022-09-13T17:00:42;19.70;99.90
20459;DHT22;10388;52.314;7.938;2022-09-13T17:03:13;19.70;99.90
20459;DHT22;10388;52.314;7.938;2022-09-13T17:05:43;19.60;99.90
20459;DHT22;10388;52.314;7.938;2022-09-13T17:08:14;19.50;99.90
20459;DHT22;10388;52.314;7.938;2022-09-13T17:10:44;19.40;99.90
20459;DHT22;10388;52.314;7.938;2022-09-13T17:13:15;19.30;99.90
20459;DHT22;10388;52.314;7.938;2022-09-13T17:15:46;19.30;99.90
20459;DHT22;10388;52.314;7.938;2022-09-13T17:18:17;19.20;99.90
20459;DHT22;10388;52.314;7.938;2022-09-13T17:20:49;19.20;99.90
20459;DHT22;10388;52.314;7.938;2022-09-13T17:23:20;19.10;99.90
20459;DHT22;10388;52.314;7.938;2022-09-13T17:25:50;19.00;99.90
20459;DHT22;10388;52.314;7.938;2022-09-13T17:28:21;19.00;99.90
20459;DHT22;10388;52.314;7.938;2022-09-13T17:30:52;18.90;99.90
20459;DHT22;10388;52.314;7.938;2022-09-13T17:33:23;18.80;99.90
20459;DHT22;10388;52.314;7.938;2022-09-13T17:36:00;18.70;99.90
20459;DHT22;10388;52.314;7.938;2022-09-13T17:38:31;18.60;99.90
20459;DHT22;10388;52.314;7.938;2022-09-13T17:41:13;18.60;99.90
20459;DHT22;10388;52.314;7.938;2022-09-13T17:43:46;18.50;99.90
20459;DHT22;10388;52.314;7.938;2022-09-13T17:46:22;18.40;99.90
20459;DHT22;10388;52.314;7.938;2022-09-13T17:48:55;18.30;99.90
20459;DHT22;10388;52.314;7.938;2022-09-13T17:51:28;18.20;99.90
20459;DHT22;10388;52.314;7.938;2022-09-13T17:54:01;18.10;99.90
20459;DHT22;10388;52.314;7.938;2022-09-13T17:56:38;18.00;99.90
20459;DHT22;10388;52.314;7.938;2022-09-13T17:59:14;18.00;99.90
20459;DHT22;10388;52.314;7.938;2022-09-13T18:01:49;17.90;99.90
20459;DHT22;10388;52.314;7.938;2022-09-13T18:04:22;17.80;99.90
20459;DHT22;10388;52.314;7.938;2022-09-13T18:06:52;17.70;99.90
20459;DHT22;10388;52.314;7.938;2022-09-13T18:09:23;17.60;99.90
20459;DHT22;10388;52.314;7.938;2022-09-13T18:11:54;17.60;99.90
20459;DHT22;10388;52.314;7.938;2022-09-13T18:14:25;17.50;99.90
20459;DHT22;10388;52.314;7.938;2022-09-13T18:16:57;17.40;99.90
20459;DHT22;10388;52.314;7.938;2022-09-13T18:19:27;17.40;99.90
20459;DHT22;10388;52.314;7.938;2022-09-13T18:21:58;17.30;99.90
20459;DHT22;10388;52.314;7.938;2022-09-13T18:24:30;17.30;99.90
20459;DHT22;10388;52.314;7.938;2022-09-13T18:27:03;17.20;99.90
20459;DHT22;10388;52.314;7.938;2022-09-13T18:29:34;17.20;99.90
20459;DHT22;10388;52.314;7.938;2022-09-13T18:32:05;17.10;99.90
20459;DHT22;10388;52.314;7.938;2022-09-13T18:34:36;17.00;99.90
20459;DHT22;10388;52.314;7.938;2022-09-13T18:37:06;16.90;99.90
20459;DHT22;10388;52.314;7.938;2022-09-13T18:39:37;16.90;99.90
20459;DHT22;10388;52.314;7.938;2022-09-13T18:42:08;16.80;99.90
20459;DHT22;10388;52.314;7.938;2022-09-13T18:44:38;16.80;99.90
20459;DHT22;10388;52.314;7.938;2022-09-13T18:47:09;16.80;99.90
20459;DHT22;10388;52.314;7.938;2022-09-13T18:49:42;16.90;99.90
20459;DHT22;10388;52.314;7.938;2022-09-13T18:52:12;17.10;99.90
20459;DHT22;10388;52.314;7.938;2022-09-13T18:54:43;17.10;99.90
20459;DHT22;10388;52.314;7.938;2022-09-13T18:57:13;17.00;99.90
20459;DHT22;10388;52.314;7.938;2022-09-13T18:59:44;17.00;99.90
20459;DHT22;10388;52.314;7.938;2022-09-13T19:02:15;17.00;99.90
20459;DHT22;10388;52.314;7.938;2022-09-13T19:04:46;16.90;99.90
20459;DHT22;10388;52.314;7.938;2022-09-13T19:07:17;16.90;99.90
20459;DHT22;10388;52.314;7.938;2022-09-13T19:09:49;16.90;99.90
20459;DHT22;10388;52.314;7.938;2022-09-13T19:12:20;16.90;99.90
20459;DHT22;10388;52.314;7.938;2022-09-13T19:14:50;16.90;99.90
20459;DHT22;10388;52.314;7.938;2022-09-13T19:17:21;16.80;99.90
20459;DHT22;10388;52.314;7.938;2022-09-13T19:19:52;16.80;99.90
20459;DHT22;10388;52.314;7.938;2022-09-13T19:22:23;16.80;99.90
20459;DHT22;10388;52.314;7.938;2022-09-13T19:24:54;16.70;99.90
20459;DHT22;10388;52.314;7.938;2022-09-13T19:27:25;16.70;99.90
20459;DHT22;10388;52.314;7.938;2022-09-13T19:29:56;16.60;99.90
20459;DHT22;10388;52.314;7.938;2022-09-13T19:32:28;16.50;99.90
20459;DHT22;10388;52.314;7.938;2022-09-13T19:34:59;16.50;99.90
20459;DHT22;10388;52.314;7.938;2022-09-13T19:37:31;16.40;99.90
20459;DHT22;10388;52.314;7.938;2022-09-13T19:40:02;16.40;99.90
20459;DHT22;10388;52.314;7.938;2022-09-13T19:42:33;16.40;99.90
20459;DHT22;10388;52.314;7.938;2022-09-13T19:45:05;16.30;99.90
20459;DHT22;10388;52.314;7.938;2022-09-13T19:47:37;16.30;99.90
20459;DHT22;10388;52.314;7.938;2022-09-13T19:50:08;16.20;99.90
20459;DHT22;10388;52.314;7.938;2022-09-13T19:52:38;16.20;99.90
20459;DHT22;10388;52.314;7.938;2022-09-13T19:55:09;16.10;99.90
20459;DHT22;10388;52.314;7.938;2022-09-13T19:57:39;16.00;99.90
20459;DHT22;10388;52.314;7.938;2022-09-13T20:00:10;16.00;99.90
20459;DHT22;10388;52.314;7.938;2022-09-13T20:02:41;15.90;99.90
20459;DHT22;10388;52.314;7.938;2022-09-13T20:05:12;15.90;99.90
20459;DHT22;10388;52.314;7.938;2022-09-13T20:07:43;15.80;99.90
20459;DHT22;10388;52.314;7.938;2022-09-13T20:10:14;15.70;99.90
20459;DHT22;10388;52.314;7.938;2022-09-13T20:12:44;15.60;99.90
20459;DHT22;10388;52.314;7.938;2022-09-13T20:15:15;15.60;99.90
20459;DHT22;10388;52.314;7.938;2022-09-13T20:17:46;15.60;99.90
20459;DHT22;10388;52.314;7.938;2022-09-13T20:20:17;15.50;99.90
20459;DHT22;10388;52.314;7.938;2022-09-13T20:22:47;15.40;99.90
20459;DHT22;10388;52.314;7.938;2022-09-13T20:25:18;15.40;99.90
20459;DHT22;10388;52.314;7.938;2022-09-13T20:27:48;15.30;99.90
20459;DHT22;10388;52.314;7.938;2022-09-13T20:30:19;15.30;99.90
20459;DHT22;10388;52.314;7.938;2022-09-13T20:32:51;15.20;99.90
20459;DHT22;10388;52.314;7.938;2022-09-13T20:35:23;15.20;99.90
20459;DHT22;10388;52.314;7.938;2022-09-13T20:37:54;15.10;99.90
20459;DHT22;10388;52.314;7.938;2022-09-13T20:40:25;15.10;99.90
20459;DHT22;10388;52.314;7.938;2022-09-13T20:42:55;15.10;99.90
20459;DHT22;10388;52.314;7.938;2022-09-13T20:45:26;15.00;99.90
20459;DHT22;10388;52.314;7.938;2022-09-13T20:47:56;15.00;99.90
20459;DHT22;10388;52.314;7.938;2022-09-13T20:50:27;15.00;99.90
20459;DHT22;10388;52.314;7.938;2022-09-13T20:52:58;14.90;99.90
20459;DHT22;10388;52.314;7.938;2022-09-13T20:55:29;14.90;99.90
20459;DHT22;10388;52.314;7.938;2022-09-13T20:58:00;14.80;99.90
20459;DHT22;10388;52.314;7.938;2022-09-13T21:00:30;14.80;99.90
20459;DHT22;10388;52.314;7.938;2022-09-13T21:03:01;14.70;99.90
20459;DHT22;10388;52.314;7.938;2022-09-13T21:05:37;14.70;99.90
20459;DHT22;10388;52.314;7.938;2022-09-13T21:08:15;14.70;99.90
20459;DHT22;10388;52.314;7.938;2022-09-13T21:11:04;14.70;99.90
20459;DHT22;10388;52.314;7.938;2022-09-13T21:13:36;14.60;99.90
20459;DHT22;10388;52.314;7.938;2022-09-13T21:16:11;14.50;99.90
20459;DHT22;10388;52.314;7.938;2022-09-13T21:18:43;14.50;99.90
20459;DHT22;10388;52.314;7.938;2022-09-13T21:21:19;14.40;99.90
20459;DHT22;10388;52.314;7.938;2022-09-13T21:23:51;14.40;99.90
20459;DHT22;10388;52.314;7.938;2022-09-13T21:26:24;14.40;99.90
20459;DHT22;10388;52.314;7.938;2022-09-13T21:28:57;14.30;99.90
20459;DHT22;10388;52.314;7.938;2022-09-13T21:31:30;14.30;99.90
20459;DHT22;10388;52.314;7.938;2022-09-13T21:34:06;14.30;99.90
20459;DHT22;10388;52.314;7.938;2022-09-13T21:36:37;14.20;99.90
20459;DHT22;10388;52.314;7.938;2022-09-13T21:39:08;14.20;99.90
20459;DHT22;10388;52.314;7.938;2022-09-13T21:41:39;14.10;99.90
20459;DHT22;10388;52.314;7.938;2022-09-13T21:44:10;14.10;99.90
20459;DHT22;10388;52.314;7.938;2022-09-13T21:46:41;14.00;99.90
20459;DHT22;10388;52.314;7.938;2022-09-13T21:49:12;14.00;99.90
20459;DHT22;10388;52.314;7.938;2022-09-13T21:51:45;14.00;99.90
20459;DHT22;10388;52.314;7.938;2022-09-13T21:54:17;14.00;99.90
20459;DHT22;10388;52.314;7.938;2022-09-13T21:56:51;13.90;99.90
20459;DHT22;10388;52.314;7.938;2022-09-13T21:59:23;13.90;99.90